sensor_id;sensor_type;location;lat;lon;timestamp;temperature;humidity
33093;DHT22;19456;46.104;12.908;2022-08-24T00:02:04;21.00;99.90
33093;DHT22;19456;46.104;12.908;2022-08-24T00:04:29;20.90;99.90
33093;DHT22;19456;46.104;12.908;2022-08-24T00:06:55;21.00;99.90
33093;DHT22;19456;46.104;12.908;2022-08-24T00:09:21;21.10;99.90
33093;DHT22;19456;46.104;12.908;2022-08-24T00:11:46;21.00;99.90
33093;DHT22;19456;46.104;12.908;2022-08-24T00:14:12;21.10;99.90
33093;DHT22;19456;46.104;12.908;2022-08-24T00:16:37;21.10;99.90
33093;DHT22;19456;46.104;12.908;2022-08-24T00:19:03;21.10;99.90
33093;DHT22;19456;46.104;12.908;2022-08-24T00:21:29;20.70;99.90
33093;DHT22;19456;46.104;12.908;2022-08-24T00:23:54;20.50;99.90
33093;DHT22;19456;46.104;12.908;2022-08-24T00:26:20;20.50;99.90
33093;DHT22;19456;46.104;12.908;2022-08-24T00:28:45;20.60;99.90
33093;DHT22;19456;46.104;12.908;2022-08-24T00:31:11;20.70;99.90
33093;DHT22;19456;46.104;12.908;2022-08-24T00:33:36;20.70;99.90
33093;DHT22;19456;46.104;12.908;2022-08-24T00:36:02;20.70;99.90
33093;DHT22;19456;46.104;12.908;2022-08-24T00:38:28;20.90;99.90
33093;DHT22;19456;46.104;12.908;2022-08-24T00:40:53;20.90;99.90
33093;DHT22;19456;46.104;12.908;2022-08-24T00:43:21;20.90;99.90
33093;DHT22;19456;46.104;12.908;2022-08-24T00:46:35;20.60;99.90
33093;DHT22;19456;46.104;12.908;2022-08-24T00:48:37;20.30;99.90
33093;DHT22;19456;46.104;12.908;2022-08-24T00:53:40;20.30;99.90
33093;DHT22;19456;46.104;12.908;2022-08-24T00:56:09;20.40;99.90
33093;DHT22;19456;46.104;12.908;2022-08-24T00:58:40;20.30;99.90
33093;DHT22;19456;46.104;12.908;2022-08-24T01:01:06;20.30;99.90
33093;DHT22;19456;46.104;12.908;2022-08-24T01:03:33;20.50;99.90
33093;DHT22;19456;46.104;12.908;2022-08-24T01:05:58;20.70;99.90
33093;DHT22;19456;46.104;12.908;2022-08-24T01:08:24;20.30;99.90
33093;DHT22;19456;46.104;12.908;2022-08-24T01:10:51;20.20;99.90
33093;DHT22;19456;46.104;12.908;2022-08-24T01:13:17;20.40;99.90
33093;DHT22;19456;46.104;12.908;2022-08-24T01:15:44;20.40;99.90
33093;DHT22;19456;46.104;12.908;2022-08-24T01:18:15;20.50;99.90
33093;DHT22;19456;46.104;12.908;2022-08-24T01:23:36;20.00;99.90
33093;DHT22;19456;46.104;12.908;2022-08-24T01:26:03;19.80;99.90
33093;DHT22;19456;46.104;12.908;2022-08-24T01:28:29;19.90;99.90
33093;DHT22;19456;46.104;12.908;2022-08-24T01:30:55;19.90;99.90
33093;DHT22;19456;46.104;12.908;2022-08-24T01:33:25;20.00;99.90
33093;DHT22;19456;46.104;12.908;2022-08-24T01:35:53;20.20;99.90
33093;DHT22;19456;46.104;12.908;2022-08-24T01:38:19;20.20;99.90
33093;DHT22;19456;46.104;12.908;2022-08-24T01:40:45;20.00;99.90
33093;DHT22;19456;46.104;12.908;2022-08-24T01:43:13;19.70;99.90
33093;DHT22;19456;46.104;12.908;2022-08-24T01:45:39;19.50;99.90
33093;DHT22;19456;46.104;12.908;2022-08-24T01:48:05;19.40;99.90
33093;DHT22;19456;46.104;12.908;2022-08-24T01:50:31;19.40;99.90
33093;DHT22;19456;46.104;12.908;2022-08-24T01:52:58;19.40;99.90
33093;DHT22;19456;46.104;12.908;2022-08-24T01:55:26;19.50;99.90
33093;DHT22;19456;46.104;12.908;2022-08-24T01:57:51;19.50;99.90
33093;DHT22;19456;46.104;12.908;2022-08-24T02:00:17;19.50;99.90
33093;DHT22;19456;46.104;12.908;2022-08-24T02:02:43;19.50;99.90
33093;DHT22;19456;46.104;12.908;2022-08-24T02:05:09;19.60;99.90
33093;DHT22;19456;46.104;12.908;2022-08-24T02:07:35;19.70;99.90
33093;DHT22;19456;46.104;12.908;2022-08-24T02:10:00;19.50;99.90
33093;DHT22;19456;46.104;12.908;2022-08-24T02:12:26;19.40;99.90
33093;DHT22;19456;46.104;12.908;2022-08-24T02:14:52;19.20;99.90
33093;DHT22;19456;46.104;12.908;2022-08-24T02:17:17;18.90;99.90
33093;DHT22;19456;46.104;12.908;2022-08-24T02:19:43;18.70;99.90
33093;DHT22;19456;46.104;12.908;2022-08-24T02:22:09;18.80;99.90
33093;DHT22;19456;46.104;12.908;2022-08-24T02:24:35;18.90;99.90
33093;DHT22;19456;46.104;12.908;2022-08-24T02:27:01;19.10;99.90
33093;DHT22;19456;46.104;12.908;2022-08-24T02:29:26;19.10;99.90
33093;DHT22;19456;46.104;12.908;2022-08-24T02:31:52;19.00;99.90
33093;DHT22;19456;46.104;12.908;2022-08-24T02:34:17;18.90;99.90
33093;DHT22;19456;46.104;12.908;2022-08-24T02:36:43;18.90;99.90
33093;DHT22;19456;46.104;12.908;2022-08-24T02:39:09;18.90;99.90
33093;DHT22;19456;46.104;12.908;2022-08-24T02:41:35;19.00;99.90
33093;DHT22;19456;46.104;12.908;2022-08-24T02:44:02;19.10;99.90
33093;DHT22;19456;46.104;12.908;2022-08-24T02:46:28;19.30;99.90
33093;DHT22;19456;46.104;12.908;2022-08-24T02:48:54;19.40;99.90
33093;DHT22;19456;46.104;12.908;2022-08-24T02:51:31;19.50;99.90
33093;DHT22;19456;46.104;12.908;2022-08-24T02:53:57;19.60;99.90
33093;DHT22;19456;46.104;12.908;2022-08-24T02:56:23;19.70;99.90
33093;DHT22;19456;46.104;12.908;2022-08-24T02:58:49;19.70;99.90
33093;DHT22;19456;46.104;12.908;2022-08-24T03:01:15;19.60;99.90
33093;DHT22;19456;46.104;12.908;2022-08-24T03:03:41;19.40;99.90
33093;DHT22;19456;46.104;12.908;2022-08-24T03:06:07;19.30;99.90
33093;DHT22;19456;46.104;12.908;2022-08-24T03:08:34;19.20;99.90
33093;DHT22;19456;46.104;12.908;2022-08-24T03:11:00;19.30;99.90
33093;DHT22;19456;46.104;12.908;2022-08-24T03:13:26;19.40;99.90
33093;DHT22;19456;46.104;12.908;2022-08-24T03:15:52;19.30;99.90
33093;DHT22;19456;46.104;12.908;2022-08-24T03:18:20;19.30;99.90
33093;DHT22;19456;46.104;12.908;2022-08-24T03:20:46;19.20;99.90
33093;DHT22;19456;46.104;12.908;2022-08-24T03:23:11;19.20;99.90
33093;DHT22;19456;46.104;12.908;2022-08-24T03:25:37;19.30;99.90
33093;DHT22;19456;46.104;12.908;2022-08-24T03:28:02;19.10;99.90
33093;DHT22;19456;46.104;12.908;2022-08-24T03:30:28;19.10;99.90
33093;DHT22;19456;46.104;12.908;2022-08-24T03:32:53;18.80;99.90
33093;DHT22;19456;46.104;12.908;2022-08-24T03:35:19;18.80;99.90
33093;DHT22;19456;46.104;12.908;2022-08-24T03:37:49;18.70;99.90
33093;DHT22;19456;46.104;12.908;2022-08-24T03:40:15;18.70;99.90
33093;DHT22;19456;46.104;12.908;2022-08-24T03:42:40;18.60;99.90
33093;DHT22;19456;46.104;12.908;2022-08-24T03:45:06;18.50;99.90
33093;DHT22;19456;46.104;12.908;2022-08-24T03:47:32;18.60;99.90
33093;DHT22;19456;46.104;12.908;2022-08-24T03:49:57;18.60;99.90
33093;DHT22;19456;46.104;12.908;2022-08-24T03:52:23;18.70;99.90
33093;DHT22;19456;46.104;12.908;2022-08-24T03:54:48;18.50;99.90
33093;DHT22;19456;46.104;12.908;2022-08-24T03:57:14;18.50;99.90
33093;DHT22;19456;46.104;12.908;2022-08-24T03:59:39;18.50;99.90
33093;DHT22;19456;46.104;12.908;2022-08-24T04:02:05;18.40;99.90
33093;DHT22;19456;46.104;12.908;2022-08-24T04:04:31;18.50;99.90
33093;DHT22;19456;46.104;12.908;2022-08-24T04:06:57;18.60;99.90
33093;DHT22;19456;46.104;12.908;2022-08-24T04:09:22;18.60;99.90
33093;DHT22;19456;46.104;12.908;2022-08-24T04:11:48;18.60;99.90
33093;DHT22;19456;46.104;12.908;2022-08-24T04:14:14;18.60;99.90
33093;DHT22;19456;46.104;12.908;2022-08-24T04:16:40;18.70;99.90
33093;DHT22;19456;46.104;12.908;2022-08-24T04:19:06;18.70;99.90
33093;DHT22;19456;46.104;12.908;2022-08-24T04:21:32;18.50;99.90
33093;DHT22;19456;46.104;12.908;2022-08-24T04:23:58;18.50;99.90
33093;DHT22;19456;46.104;12.908;2022-08-24T04:26:25;18.40;99.90
33093;DHT22;19456;46.104;12.908;2022-08-24T04:28:51;18.30;99.90
33093;DHT22;19456;46.104;12.908;2022-08-24T04:31:17;18.40;99.90
33093;DHT22;19456;46.104;12.908;2022-08-24T04:33:43;18.30;99.90
33093;DHT22;19456;46.104;12.908;2022-08-24T04:36:09;18.20;99.90
33093;DHT22;19456;46.104;12.908;2022-08-24T04:38:36;18.10;99.90
33093;DHT22;19456;46.104;12.908;2022-08-24T04:41:05;18.30;99.90
33093;DHT22;19456;46.104;12.908;2022-08-24T04:43:31;18.50;99.90
33093;DHT22;19456;46.104;12.908;2022-08-24T04:45:57;18.60;99.90
33093;DHT22;19456;46.104;12.908;2022-08-24T04:48:22;18.60;99.90
33093;DHT22;19456;46.104;12.908;2022-08-24T04:50:48;18.60;99.90
33093;DHT22;19456;46.104;12.908;2022-08-24T04:53:13;18.60;99.90
33093;DHT22;19456;46.104;12.908;2022-08-24T04:55:41;18.60;99.90
33093;DHT22;19456;46.104;12.908;2022-08-24T04:58:08;18.60;99.90
33093;DHT22;19456;46.104;12.908;2022-08-24T05:00:33;18.60;99.90
33093;DHT22;19456;46.104;12.908;2022-08-24T05:02:59;18.80;99.90
33093;DHT22;19456;46.104;12.908;2022-08-24T05:05:24;18.90;99.90
33093;DHT22;19456;46.104;12.908;2022-08-24T05:07:50;19.00;99.90
33093;DHT22;19456;46.104;12.908;2022-08-24T05:10:15;19.00;99.90
33093;DHT22;19456;46.104;12.908;2022-08-24T05:12:41;19.10;99.90
33093;DHT22;19456;46.104;12.908;2022-08-24T05:15:08;19.10;99.90
33093;DHT22;19456;46.104;12.908;2022-08-24T05:17:34;19.20;99.90
33093;DHT22;19456;46.104;12.908;2022-08-24T05:19:59;19.40;99.90
33093;DHT22;19456;46.104;12.908;2022-08-24T05:22:25;19.50;99.90
33093;DHT22;19456;46.104;12.908;2022-08-24T05:24:50;19.50;99.90
33093;DHT22;19456;46.104;12.908;2022-08-24T05:27:16;19.50;99.90
33093;DHT22;19456;46.104;12.908;2022-08-24T05:29:43;19.60;99.90
33093;DHT22;19456;46.104;12.908;2022-08-24T05:32:09;19.70;99.90
33093;DHT22;19456;46.104;12.908;2022-08-24T05:34:34;19.80;99.90
33093;DHT22;19456;46.104;12.908;2022-08-24T05:37:00;20.00;99.90
33093;DHT22;19456;46.104;12.908;2022-08-24T05:39:26;20.10;99.90
33093;DHT22;19456;46.104;12.908;2022-08-24T05:41:52;20.20;99.90
33093;DHT22;19456;46.104;12.908;2022-08-24T05:44:18;20.30;99.90
33093;DHT22;19456;46.104;12.908;2022-08-24T05:46:43;20.40;99.90
33093;DHT22;19456;46.104;12.908;2022-08-24T05:49:09;20.30;99.90
33093;DHT22;19456;46.104;12.908;2022-08-24T05:51:35;20.40;99.90
33093;DHT22;19456;46.104;12.908;2022-08-24T05:54:01;20.40;99.90
33093;DHT22;19456;46.104;12.908;2022-08-24T05:56:29;20.50;99.90
33093;DHT22;19456;46.104;12.908;2022-08-24T05:58:54;20.60;99.90
33093;DHT22;19456;46.104;12.908;2022-08-24T06:01:21;20.80;99.90
33093;DHT22;19456;46.104;12.908;2022-08-24T06:03:47;21.00;99.90
33093;DHT22;19456;46.104;12.908;2022-08-24T06:06:14;21.20;99.90
33093;DHT22;19456;46.104;12.908;2022-08-24T06:08:41;21.30;99.90
33093;DHT22;19456;46.104;12.908;2022-08-24T06:11:08;21.30;99.90
33093;DHT22;19456;46.104;12.908;2022-08-24T06:13:33;21.40;99.90
33093;DHT22;19456;46.104;12.908;2022-08-24T06:18:27;21.20;99.90
33093;DHT22;19456;46.104;12.908;2022-08-24T06:20:53;21.30;99.90
33093;DHT22;19456;46.104;12.908;2022-08-24T06:23:18;21.20;99.90
33093;DHT22;19456;46.104;12.908;2022-08-24T06:25:44;21.20;99.90
33093;DHT22;19456;46.104;12.908;2022-08-24T06:28:28;21.30;99.90
33093;DHT22;19456;46.104;12.908;2022-08-24T06:31:04;21.30;99.90
33093;DHT22;19456;46.104;12.908;2022-08-24T06:33:29;21.40;99.90
33093;DHT22;19456;46.104;12.908;2022-08-24T06:35:55;21.70;99.90
33093;DHT22;19456;46.104;12.908;2022-08-24T06:38:20;21.90;99.90
33093;DHT22;19456;46.104;12.908;2022-08-24T06:40:46;22.10;99.90
33093;DHT22;19456;46.104;12.908;2022-08-24T06:43:12;22.20;99.90
33093;DHT22;19456;46.104;12.908;2022-08-24T06:45:39;22.20;99.90
33093;DHT22;19456;46.104;12.908;2022-08-24T06:48:05;22.30;99.90
33093;DHT22;19456;46.104;12.908;2022-08-24T06:50:30;22.50;99.90
33093;DHT22;19456;46.104;12.908;2022-08-24T06:52:56;22.70;99.90
33093;DHT22;19456;46.104;12.908;2022-08-24T06:55:21;22.80;99.90
33093;DHT22;19456;46.104;12.908;2022-08-24T06:57:47;22.90;99.90
33093;DHT22;19456;46.104;12.908;2022-08-24T07:00:13;23.00;99.90
33093;DHT22;19456;46.104;12.908;2022-08-24T07:02:38;23.10;99.90
33093;DHT22;19456;46.104;12.908;2022-08-24T07:05:05;23.20;99.90
33093;DHT22;19456;46.104;12.908;2022-08-24T07:07:31;23.30;99.90
33093;DHT22;19456;46.104;12.908;2022-08-24T07:09:56;23.40;99.90
33093;DHT22;19456;46.104;12.908;2022-08-24T07:12:23;23.50;99.90
33093;DHT22;19456;46.104;12.908;2022-08-24T07:14:51;23.60;99.90
33093;DHT22;19456;46.104;12.908;2022-08-24T07:17:17;23.70;99.90
33093;DHT22;19456;46.104;12.908;2022-08-24T07:19:43;23.80;99.90
33093;DHT22;19456;46.104;12.908;2022-08-24T07:22:10;23.80;99.90
33093;DHT22;19456;46.104;12.908;2022-08-24T07:31:04;24.20;99.90
33093;DHT22;19456;46.104;12.908;2022-08-24T07:42:59;24.00;99.90
33093;DHT22;19456;46.104;12.908;2022-08-24T07:45:25;24.20;99.90
33093;DHT22;19456;46.104;12.908;2022-08-24T07:47:51;24.30;99.90
33093;DHT22;19456;46.104;12.908;2022-08-24T07:50:17;24.40;99.90
33093;DHT22;19456;46.104;12.908;2022-08-24T07:52:43;24.30;99.90
33093;DHT22;19456;46.104;12.908;2022-08-24T07:55:09;24.30;99.90
33093;DHT22;19456;46.104;12.908;2022-08-24T07:57:35;24.50;99.90
33093;DHT22;19456;46.104;12.908;2022-08-24T08:00:04;24.60;99.90
33093;DHT22;19456;46.104;12.908;2022-08-24T08:02:31;24.50;99.90
33093;DHT22;19456;46.104;12.908;2022-08-24T08:04:58;24.50;99.90
33093;DHT22;19456;46.104;12.908;2022-08-24T08:07:23;24.50;99.90
33093;DHT22;19456;46.104;12.908;2022-08-24T08:09:49;24.30;99.90
33093;DHT22;19456;46.104;12.908;2022-08-24T08:12:15;24.30;99.90
33093;DHT22;19456;46.104;12.908;2022-08-24T08:14:40;24.30;99.90
33093;DHT22;19456;46.104;12.908;2022-08-24T08:17:06;24.30;99.90
33093;DHT22;19456;46.104;12.908;2022-08-24T08:19:32;24.30;99.90
33093;DHT22;19456;46.104;12.908;2022-08-24T08:21:57;24.20;99.90
33093;DHT22;19456;46.104;12.908;2022-08-24T08:24:42;24.30;99.90
33093;DHT22;19456;46.104;12.908;2022-08-24T08:27:08;24.30;99.90
33093;DHT22;19456;46.104;12.908;2022-08-24T08:29:35;24.50;99.90
33093;DHT22;19456;46.104;12.908;2022-08-24T08:32:00;24.50;99.90
33093;DHT22;19456;46.104;12.908;2022-08-24T08:34:26;24.30;99.90
33093;DHT22;19456;46.104;12.908;2022-08-24T08:36:52;24.40;99.90
33093;DHT22;19456;46.104;12.908;2022-08-24T08:39:18;24.60;99.90
33093;DHT22;19456;46.104;12.908;2022-08-24T08:41:55;24.70;99.90
33093;DHT22;19456;46.104;12.908;2022-08-24T08:47:15;24.60;99.90
33093;DHT22;19456;46.104;12.908;2022-08-24T08:54:51;24.90;99.90
33093;DHT22;19456;46.104;12.908;2022-08-24T09:00:14;25.00;99.90
33093;DHT22;19456;46.104;12.908;2022-08-24T09:13:30;25.40;99.90
33093;DHT22;19456;46.104;12.908;2022-08-24T09:18:40;25.60;99.90
33093;DHT22;19456;46.104;12.908;2022-08-24T09:36:08;25.40;99.90
33093;DHT22;19456;46.104;12.908;2022-08-24T09:48:29;26.00;99.90
33093;DHT22;19456;46.104;12.908;2022-08-24T10:06:27;26.00;99.90
33093;DHT22;19456;46.104;12.908;2022-08-24T10:37:28;27.60;99.90
33093;DHT22;19456;46.104;12.908;2022-08-24T10:42:43;27.90;99.90
33093;DHT22;19456;46.104;12.908;2022-08-24T10:55:45;28.60;99.90
33093;DHT22;19456;46.104;12.908;2022-08-24T10:58:58;27.80;99.90
33093;DHT22;19456;46.104;12.908;2022-08-24T11:04:06;28.40;99.90
33093;DHT22;19456;46.104;12.908;2022-08-24T11:09:06;28.60;99.90
33093;DHT22;19456;46.104;12.908;2022-08-24T11:11:34;28.70;99.90
33093;DHT22;19456;46.104;12.908;2022-08-24T11:16:31;28.60;99.90
33093;DHT22;19456;46.104;12.908;2022-08-24T11:18:58;28.70;99.90
33093;DHT22;19456;46.104;12.908;2022-08-24T11:21:47;29.20;99.90
33093;DHT22;19456;46.104;12.908;2022-08-24T11:26:44;30.00;99.90
33093;DHT22;19456;46.104;12.908;2022-08-24T11:29:11;30.50;99.90
33093;DHT22;19456;46.104;12.908;2022-08-24T11:31:41;30.70;99.90
33093;DHT22;19456;46.104;12.908;2022-08-24T11:34:08;30.70;99.90
33093;DHT22;19456;46.104;12.908;2022-08-24T11:36:35;30.90;99.90
33093;DHT22;19456;46.104;12.908;2022-08-24T11:39:10;31.30;99.90
33093;DHT22;19456;46.104;12.908;2022-08-24T11:41:40;31.40;99.90
33093;DHT22;19456;46.104;12.908;2022-08-24T11:44:31;31.30;99.90
33093;DHT22;19456;46.104;12.908;2022-08-24T11:49:46;31.70;99.90
33093;DHT22;19456;46.104;12.908;2022-08-24T11:52:25;32.30;99.90
33093;DHT22;19456;46.104;12.908;2022-08-24T11:57:33;31.90;99.90
33093;DHT22;19456;46.104;12.908;2022-08-24T12:00:18;32.00;99.90
33093;DHT22;19456;46.104;12.908;2022-08-24T12:10:07;32.80;99.90
33093;DHT22;19456;46.104;12.908;2022-08-24T12:12:39;33.00;99.90
33093;DHT22;19456;46.104;12.908;2022-08-24T12:15:08;33.40;99.90
33093;DHT22;19456;46.104;12.908;2022-08-24T12:17:39;32.70;99.90
33093;DHT22;19456;46.104;12.908;2022-08-24T12:20:41;32.50;99.90
33093;DHT22;19456;46.104;12.908;2022-08-24T12:23:00;32.80;99.90
33093;DHT22;19456;46.104;12.908;2022-08-24T12:25:29;33.10;99.90
33093;DHT22;19456;46.104;12.908;2022-08-24T12:28:14;32.80;99.90
33093;DHT22;19456;46.104;12.908;2022-08-24T12:30:42;33.10;99.90
33093;DHT22;19456;46.104;12.908;2022-08-24T12:33:10;33.30;99.80
33093;DHT22;19456;46.104;12.908;2022-08-24T12:35:57;33.00;99.10
33093;DHT22;19456;46.104;12.908;2022-08-24T12:38:33;32.70;99.60
33093;DHT22;19456;46.104;12.908;2022-08-24T12:44:00;33.40;99.60
33093;DHT22;19456;46.104;12.908;2022-08-24T12:46:21;34.10;99.00
33093;DHT22;19456;46.104;12.908;2022-08-24T12:48:58;33.90;97.90
33093;DHT22;19456;46.104;12.908;2022-08-24T12:51:29;34.00;96.30
33093;DHT22;19456;46.104;12.908;2022-08-24T12:59:04;33.90;94.50
33093;DHT22;19456;46.104;12.908;2022-08-24T13:01:32;34.20;95.00
33093;DHT22;19456;46.104;12.908;2022-08-24T13:06:36;34.20;94.90
33093;DHT22;19456;46.104;12.908;2022-08-24T13:09:05;34.40;95.10
33093;DHT22;19456;46.104;12.908;2022-08-24T13:11:31;34.40;93.90
33093;DHT22;19456;46.104;12.908;2022-08-24T13:14:06;34.40;93.20
33093;DHT22;19456;46.104;12.908;2022-08-24T13:21:54;34.60;92.70
33093;DHT22;19456;46.104;12.908;2022-08-24T13:26:55;34.90;91.70
33093;DHT22;19456;46.104;12.908;2022-08-24T13:29:23;35.40;91.60
33093;DHT22;19456;46.104;12.908;2022-08-24T13:31:49;35.80;91.40
33093;DHT22;19456;46.104;12.908;2022-08-24T13:44:50;36.50;83.30
33093;DHT22;19456;46.104;12.908;2022-08-24T13:49:44;36.60;81.90
33093;DHT22;19456;46.104;12.908;2022-08-24T13:59:46;37.70;77.80
33093;DHT22;19456;46.104;12.908;2022-08-24T14:07:27;37.20;78.30
33093;DHT22;19456;46.104;12.908;2022-08-24T14:10:00;37.90;78.40
33093;DHT22;19456;46.104;12.908;2022-08-24T14:25:22;38.30;72.10
33093;DHT22;19456;46.104;12.908;2022-08-24T14:32:47;37.50;72.10
33093;DHT22;19456;46.104;12.908;2022-08-24T14:45:57;38.30;71.00
33093;DHT22;19456;46.104;12.908;2022-08-24T14:51:19;37.40;70.80
33093;DHT22;19456;46.104;12.908;2022-08-24T14:53:58;37.00;71.80
33093;DHT22;19456;46.104;12.908;2022-08-24T15:01:42;38.00;72.30
33093;DHT22;19456;46.104;12.908;2022-08-24T15:06:53;37.90;70.00
33093;DHT22;19456;46.104;12.908;2022-08-24T15:11:47;37.30;70.50
33093;DHT22;19456;46.104;12.908;2022-08-24T15:21:50;36.90;71.50
33093;DHT22;19456;46.104;12.908;2022-08-24T15:29:21;36.70;71.60
33093;DHT22;19456;46.104;12.908;2022-08-24T15:31:54;36.90;71.80
33093;DHT22;19456;46.104;12.908;2022-08-24T15:34:30;36.50;71.40
33093;DHT22;19456;46.104;12.908;2022-08-24T15:36:59;36.20;72.50
33093;DHT22;19456;46.104;12.908;2022-08-24T15:39:26;36.10;72.30
33093;DHT22;19456;46.104;12.908;2022-08-24T15:41:52;36.90;71.70
33093;DHT22;19456;46.104;12.908;2022-08-24T15:44:22;36.60;71.20
33093;DHT22;19456;46.104;12.908;2022-08-24T15:46:50;36.20;71.70
33093;DHT22;19456;46.104;12.908;2022-08-24T15:51:43;36.20;71.50
33093;DHT22;19456;46.104;12.908;2022-08-24T15:56:43;35.00;74.00
33093;DHT22;19456;46.104;12.908;2022-08-24T15:59:10;35.40;73.50
33093;DHT22;19456;46.104;12.908;2022-08-24T16:01:36;35.30;72.60
33093;DHT22;19456;46.104;12.908;2022-08-24T16:07:22;35.60;72.70
33093;DHT22;19456;46.104;12.908;2022-08-24T16:09:58;35.60;72.30
33093;DHT22;19456;46.104;12.908;2022-08-24T16:12:24;35.80;71.30
33093;DHT22;19456;46.104;12.908;2022-08-24T16:14:55;35.60;71.40
33093;DHT22;19456;46.104;12.908;2022-08-24T16:17:35;35.30;71.90
33093;DHT22;19456;46.104;12.908;2022-08-24T16:20:06;35.20;72.60
33093;DHT22;19456;46.104;12.908;2022-08-24T16:25:06;33.80;76.10
33093;DHT22;19456;46.104;12.908;2022-08-24T16:30:21;32.70;78.10
33093;DHT22;19456;46.104;12.908;2022-08-24T16:32:51;32.50;79.00
33093;DHT22;19456;46.104;12.908;2022-08-24T16:35:18;32.10;81.80
33093;DHT22;19456;46.104;12.908;2022-08-24T16:37:44;31.80;83.40
33093;DHT22;19456;46.104;12.908;2022-08-24T16:40:10;31.60;83.40
33093;DHT22;19456;46.104;12.908;2022-08-24T16:42:36;31.50;85.30
33093;DHT22;19456;46.104;12.908;2022-08-24T16:45:04;31.30;84.50
33093;DHT22;19456;46.104;12.908;2022-08-24T16:47:29;31.20;85.20
33093;DHT22;19456;46.104;12.908;2022-08-24T16:49:55;31.00;85.20
33093;DHT22;19456;46.104;12.908;2022-08-24T16:52:21;30.90;85.80
33093;DHT22;19456;46.104;12.908;2022-08-24T16:54:47;30.80;86.00
33093;DHT22;19456;46.104;12.908;2022-08-24T16:57:14;30.70;87.20
33093;DHT22;19456;46.104;12.908;2022-08-24T16:59:41;30.70;89.40
33093;DHT22;19456;46.104;12.908;2022-08-24T17:02:08;30.60;91.20
33093;DHT22;19456;46.104;12.908;2022-08-24T17:04:34;30.40;91.70
33093;DHT22;19456;46.104;12.908;2022-08-24T17:07:00;30.50;91.60
33093;DHT22;19456;46.104;12.908;2022-08-24T17:09:26;30.30;92.70
33093;DHT22;19456;46.104;12.908;2022-08-24T17:11:52;29.90;93.10
33093;DHT22;19456;46.104;12.908;2022-08-24T17:14:18;29.90;94.80
33093;DHT22;19456;46.104;12.908;2022-08-24T17:16:44;29.70;95.10
33093;DHT22;19456;46.104;12.908;2022-08-24T17:19:14;29.50;95.80
33093;DHT22;19456;46.104;12.908;2022-08-24T17:21:41;29.40;96.60
33093;DHT22;19456;46.104;12.908;2022-08-24T17:24:07;29.20;97.60
33093;DHT22;19456;46.104;12.908;2022-08-24T17:26:33;29.20;98.10
33093;DHT22;19456;46.104;12.908;2022-08-24T17:28:59;29.00;98.40
33093;DHT22;19456;46.104;12.908;2022-08-24T17:31:26;28.90;99.10
33093;DHT22;19456;46.104;12.908;2022-08-24T17:33:54;28.80;99.80
33093;DHT22;19456;46.104;12.908;2022-08-24T17:36:20;28.70;99.90
33093;DHT22;19456;46.104;12.908;2022-08-24T17:38:47;28.70;99.90
33093;DHT22;19456;46.104;12.908;2022-08-24T17:41:13;28.60;99.90
33093;DHT22;19456;46.104;12.908;2022-08-24T17:43:39;28.40;99.90
33093;DHT22;19456;46.104;12.908;2022-08-24T17:46:06;28.40;99.90
33093;DHT22;19456;46.104;12.908;2022-08-24T17:48:32;28.40;99.90
33093;DHT22;19456;46.104;12.908;2022-08-24T17:50:58;28.60;99.90
33093;DHT22;19456;46.104;12.908;2022-08-24T17:53:24;28.50;99.90
33093;DHT22;19456;46.104;12.908;2022-08-24T17:55:50;28.30;99.90
33093;DHT22;19456;46.104;12.908;2022-08-24T17:58:16;28.30;99.90
33093;DHT22;19456;46.104;12.908;2022-08-24T18:00:41;28.10;99.90
33093;DHT22;19456;46.104;12.908;2022-08-24T18:03:07;28.00;99.90
33093;DHT22;19456;46.104;12.908;2022-08-24T18:05:33;27.90;99.90
33093;DHT22;19456;46.104;12.908;2022-08-24T18:07:59;27.90;99.90
33093;DHT22;19456;46.104;12.908;2022-08-24T18:10:25;27.80;99.90
33093;DHT22;19456;46.104;12.908;2022-08-24T18:12:52;27.70;99.90
33093;DHT22;19456;46.104;12.908;2022-08-24T18:15:18;27.60;99.90
33093;DHT22;19456;46.104;12.908;2022-08-24T18:17:45;27.60;99.90
33093;DHT22;19456;46.104;12.908;2022-08-24T18:20:13;27.60;99.90
33093;DHT22;19456;46.104;12.908;2022-08-24T18:22:39;27.50;99.90
33093;DHT22;19456;46.104;12.908;2022-08-24T18:25:12;27.40;99.90
33093;DHT22;19456;46.104;12.908;2022-08-24T18:27:38;27.30;99.90
33093;DHT22;19456;46.104;12.908;2022-08-24T18:30:05;27.20;99.90
33093;DHT22;19456;46.104;12.908;2022-08-24T18:32:31;27.50;99.90
33093;DHT22;19456;46.104;12.908;2022-08-24T18:34:57;27.40;99.90
33093;DHT22;19456;46.104;12.908;2022-08-24T18:37:22;27.40;99.90
33093;DHT22;19456;46.104;12.908;2022-08-24T18:39:48;27.30;99.90
33093;DHT22;19456;46.104;12.908;2022-08-24T18:42:14;27.10;99.90
33093;DHT22;19456;46.104;12.908;2022-08-24T18:44:39;27.00;99.90
33093;DHT22;19456;46.104;12.908;2022-08-24T18:47:05;26.90;99.90
33093;DHT22;19456;46.104;12.908;2022-08-24T18:49:31;26.90;99.90
33093;DHT22;19456;46.104;12.908;2022-08-24T18:51:57;27.10;99.90
33093;DHT22;19456;46.104;12.908;2022-08-24T18:54:34;26.90;99.90
33093;DHT22;19456;46.104;12.908;2022-08-24T18:57:00;26.70;99.90
33093;DHT22;19456;46.104;12.908;2022-08-24T18:59:25;26.70;99.90
33093;DHT22;19456;46.104;12.908;2022-08-24T19:01:51;26.60;99.90
33093;DHT22;19456;46.104;12.908;2022-08-24T19:04:41;26.50;99.90
33093;DHT22;19456;46.104;12.908;2022-08-24T19:07:07;26.50;99.90
33093;DHT22;19456;46.104;12.908;2022-08-24T19:09:33;26.20;99.90
33093;DHT22;19456;46.104;12.908;2022-08-24T19:11:58;25.70;99.90
33093;DHT22;19456;46.104;12.908;2022-08-24T19:14:24;25.40;99.90
33093;DHT22;19456;46.104;12.908;2022-08-24T19:16:50;25.30;99.90
33093;DHT22;19456;46.104;12.908;2022-08-24T19:19:15;25.30;99.90
33093;DHT22;19456;46.104;12.908;2022-08-24T19:21:41;25.10;99.90
33093;DHT22;19456;46.104;12.908;2022-08-24T19:24:07;25.10;99.90
33093;DHT22;19456;46.104;12.908;2022-08-24T19:26:33;25.20;99.90
33093;DHT22;19456;46.104;12.908;2022-08-24T19:28:59;25.20;99.90
33093;DHT22;19456;46.104;12.908;2022-08-24T19:31:25;25.20;99.90
33093;DHT22;19456;46.104;12.908;2022-08-24T19:33:51;25.20;99.90
33093;DHT22;19456;46.104;12.908;2022-08-24T19:36:16;25.10;99.90
33093;DHT22;19456;46.104;12.908;2022-08-24T19:38:42;25.00;99.90
33093;DHT22;19456;46.104;12.908;2022-08-24T19:41:08;24.80;99.90
33093;DHT22;19456;46.104;12.908;2022-08-24T19:43:34;24.60;99.90